Terminal Aerodrome Forecast
Issued by NWS

Home | Current Version | Previous Version | Graphics & Text | Print | Product List | Glossary On
Versions: 1 2 3 4 5 6 7 8 9 10 11 12
615
FTUS42 KMHX 181720
TAFPGV
TAF
KPGV 181720Z 1818/1918 22009KT P6SM SKC
     FM190200 22007KT P6SM BKN070
     FM191000 VRB03KT 5SM BR SKC
     FM191300 VRB04KT P6SM SKC
      AMD LTD TO CLD VIS AND WIND=

USA.gov is the U.S. government's official web portal to all federal, state and local government web resources and services.